sensor_id;sensor_type;location;lat;lon;timestamp;temperature;humidity
64652;HTU21D;51062;45.120;37.660;2023-04-24T00:00:31;10.31;70.72
64652;HTU21D;51062;45.120;37.660;2023-04-24T00:02:57;10.27;70.75
64652;HTU21D;51062;45.120;37.660;2023-04-24T00:05:24;10.24;70.78
64652;HTU21D;51062;45.120;37.660;2023-04-24T00:07:50;10.22;70.87
64652;HTU21D;51062;45.120;37.660;2023-04-24T00:10:19;10.23;70.92
64652;HTU21D;51062;45.120;37.660;2023-04-24T00:12:45;10.26;70.93
64652;HTU21D;51062;45.120;37.660;2023-04-24T00:15:11;10.29;70.91
64652;HTU21D;51062;45.120;37.660;2023-04-24T00:17:37;10.31;70.90
64652;HTU21D;51062;45.120;37.660;2023-04-24T00:20:04;10.30;70.88
64652;HTU21D;51062;45.120;37.660;2023-04-24T00:22:33;10.29;70.87
64652;HTU21D;51062;45.120;37.660;2023-04-24T00:25:00;10.23;70.89
64652;HTU21D;51062;45.120;37.660;2023-04-24T00:27:26;10.16;70.97
64652;HTU21D;51062;45.120;37.660;2023-04-24T00:29:52;10.12;71.06
64652;HTU21D;51062;45.120;37.660;2023-04-24T00:32:19;10.07;71.10
64652;HTU21D;51062;45.120;37.660;2023-04-24T00:34:45;10.04;71.10
64652;HTU21D;51062;45.120;37.660;2023-04-24T00:37:11;10.01;71.10
64652;HTU21D;51062;45.120;37.660;2023-04-24T00:39:37;9.97;71.17
64652;HTU21D;51062;45.120;37.660;2023-04-24T00:42:04;9.95;71.19
64652;HTU21D;51062;45.120;37.660;2023-04-24T00:44:33;9.93;71.15
64652;HTU21D;51062;45.120;37.660;2023-04-24T00:47:01;9.88;71.16
64652;HTU21D;51062;45.120;37.660;2023-04-24T00:49:27;9.83;71.19
64652;HTU21D;51062;45.120;37.660;2023-04-24T00:51:53;9.79;71.26
64652;HTU21D;51062;45.120;37.660;2023-04-24T00:54:19;9.76;71.25
64652;HTU21D;51062;45.120;37.660;2023-04-24T00:56:46;9.72;71.27
64652;HTU21D;51062;45.120;37.660;2023-04-24T00:59:13;9.70;71.23
64652;HTU21D;51062;45.120;37.660;2023-04-24T01:01:41;9.66;71.19
64652;HTU21D;51062;45.120;37.660;2023-04-24T01:04:09;9.64;71.19
64652;HTU21D;51062;45.120;37.660;2023-04-24T01:06:37;9.60;71.18
64652;HTU21D;51062;45.120;37.660;2023-04-24T01:09:04;9.54;71.26
64652;HTU21D;51062;45.120;37.660;2023-04-24T01:11:31;9.53;71.35
64652;HTU21D;51062;45.120;37.660;2023-04-24T01:13:57;9.52;71.42
64652;HTU21D;51062;45.120;37.660;2023-04-24T01:16:24;9.49;71.45
64652;HTU21D;51062;45.120;37.660;2023-04-24T01:18:53;9.46;71.47
64652;HTU21D;51062;45.120;37.660;2023-04-24T01:21:20;9.45;71.49
64652;HTU21D;51062;45.120;37.660;2023-04-24T01:23:47;9.46;71.48
64652;HTU21D;51062;45.120;37.660;2023-04-24T01:26:15;9.45;71.49
64652;HTU21D;51062;45.120;37.660;2023-04-24T01:28:41;9.49;71.47
64652;HTU21D;51062;45.120;37.660;2023-04-24T01:31:08;9.49;71.48
64652;HTU21D;51062;45.120;37.660;2023-04-24T01:33:34;9.49;71.49
64652;HTU21D;51062;45.120;37.660;2023-04-24T01:36:00;9.50;71.43
64652;HTU21D;51062;45.120;37.660;2023-04-24T01:38:27;9.48;71.39
64652;HTU21D;51062;45.120;37.660;2023-04-24T01:40:53;9.46;71.34
64652;HTU21D;51062;45.120;37.660;2023-04-24T01:43:20;9.41;71.32
64652;HTU21D;51062;45.120;37.660;2023-04-24T01:45:47;9.36;71.35
64652;HTU21D;51062;45.120;37.660;2023-04-24T01:48:13;9.32;71.41
64652;HTU21D;51062;45.120;37.660;2023-04-24T01:50:41;9.26;71.45
64652;HTU21D;51062;45.120;37.660;2023-04-24T01:53:07;9.23;71.48
64652;HTU21D;51062;45.120;37.660;2023-04-24T01:55:33;9.20;71.51
64652;HTU21D;51062;45.120;37.660;2023-04-24T01:57:59;9.17;71.55
64652;HTU21D;51062;45.120;37.660;2023-04-24T02:00:26;9.15;71.60
64652;HTU21D;51062;45.120;37.660;2023-04-24T02:02:52;9.10;71.63
64652;HTU21D;51062;45.120;37.660;2023-04-24T02:05:19;9.08;71.67
64652;HTU21D;51062;45.120;37.660;2023-04-24T02:07:45;9.05;71.71
64652;HTU21D;51062;45.120;37.660;2023-04-24T02:10:11;9.02;71.73
64652;HTU21D;51062;45.120;37.660;2023-04-24T02:12:41;8.98;71.77
64652;HTU21D;51062;45.120;37.660;2023-04-24T02:15:08;8.96;71.77
64652;HTU21D;51062;45.120;37.660;2023-04-24T02:17:36;8.93;71.75
64652;HTU21D;51062;45.120;37.660;2023-04-24T02:20:05;8.90;71.80
64652;HTU21D;51062;45.120;37.660;2023-04-24T02:22:31;8.87;71.81
64652;HTU21D;51062;45.120;37.660;2023-04-24T02:25:01;8.85;71.79
64652;HTU21D;51062;45.120;37.660;2023-04-24T02:27:27;8.81;71.78
64652;HTU21D;51062;45.120;37.660;2023-04-24T02:29:53;8.81;71.84
64652;HTU21D;51062;45.120;37.660;2023-04-24T02:32:19;8.80;71.85
64652;HTU21D;51062;45.120;37.660;2023-04-24T02:34:46;8.80;71.88
64652;HTU21D;51062;45.120;37.660;2023-04-24T02:37:12;8.78;71.90
64652;HTU21D;51062;45.120;37.660;2023-04-24T02:39:38;8.80;71.97
64652;HTU21D;51062;45.120;37.660;2023-04-24T02:42:04;8.81;71.96
64652;HTU21D;51062;45.120;37.660;2023-04-24T02:44:31;8.86;71.91
64652;HTU21D;51062;45.120;37.660;2023-04-24T02:46:57;8.90;71.90
64652;HTU21D;51062;45.120;37.660;2023-04-24T02:49:23;8.93;71.90
64652;HTU21D;51062;45.120;37.660;2023-04-24T02:51:49;8.98;71.96
64652;HTU21D;51062;45.120;37.660;2023-04-24T02:54:15;9.03;71.97
64652;HTU21D;51062;45.120;37.660;2023-04-24T02:56:41;9.07;71.99
64652;HTU21D;51062;45.120;37.660;2023-04-24T02:59:08;9.11;72.03
64652;HTU21D;51062;45.120;37.660;2023-04-24T03:01:34;9.17;72.06
64652;HTU21D;51062;45.120;37.660;2023-04-24T03:04:01;9.25;72.09
64652;HTU21D;51062;45.120;37.660;2023-04-24T03:06:27;9.38;72.26
64652;HTU21D;51062;45.120;37.660;2023-04-24T03:08:54;9.69;72.35
64652;HTU21D;51062;45.120;37.660;2023-04-24T03:11:20;9.99;72.18
64652;HTU21D;51062;45.120;37.660;2023-04-24T03:13:46;10.22;71.92
64652;HTU21D;51062;45.120;37.660;2023-04-24T03:16:12;10.30;71.85
64652;HTU21D;51062;45.120;37.660;2023-04-24T03:18:39;10.38;71.90
64652;HTU21D;51062;45.120;37.660;2023-04-24T03:21:07;10.44;71.89
64652;HTU21D;51062;45.120;37.660;2023-04-24T03:23:34;10.60;71.84
64652;HTU21D;51062;45.120;37.660;2023-04-24T03:26:00;10.79;71.42
64652;HTU21D;51062;45.120;37.660;2023-04-24T03:28:26;10.92;71.46
64652;HTU21D;51062;45.120;37.660;2023-04-24T03:30:58;11.17;71.53
64652;HTU21D;51062;45.120;37.660;2023-04-24T03:33:29;11.36;71.41
64652;HTU21D;51062;45.120;37.660;2023-04-24T03:35:59;11.60;71.28
64652;HTU21D;51062;45.120;37.660;2023-04-24T03:38:28;11.94;71.35
64652;HTU21D;51062;45.120;37.660;2023-04-24T03:41:14;12.41;71.78
64652;HTU21D;51062;45.120;37.660;2023-04-24T03:43:48;12.66;71.42
64652;HTU21D;51062;45.120;37.660;2023-04-24T03:46:15;12.76;71.16
64652;HTU21D;51062;45.120;37.660;2023-04-24T03:48:46;12.81;71.03
64652;HTU21D;51062;45.120;37.660;2023-04-24T03:51:15;12.78;70.91
64652;HTU21D;51062;45.120;37.660;2023-04-24T03:53:44;12.73;70.83
64652;HTU21D;51062;45.120;37.660;2023-04-24T03:56:13;12.69;70.93
64652;HTU21D;51062;45.120;37.660;2023-04-24T03:58:40;12.65;71.06
64652;HTU21D;51062;45.120;37.660;2023-04-24T04:01:07;12.72;71.12
64652;HTU21D;51062;45.120;37.660;2023-04-24T04:03:50;12.90;71.25
64652;HTU21D;51062;45.120;37.660;2023-04-24T04:06:19;13.29;71.70
64652;HTU21D;51062;45.120;37.660;2023-04-24T04:08:48;13.85;71.66
64652;HTU21D;51062;45.120;37.660;2023-04-24T04:11:14;14.44;71.30
64652;HTU21D;51062;45.120;37.660;2023-04-24T04:13:40;14.97;70.68
64652;HTU21D;51062;45.120;37.660;2023-04-24T04:16:08;15.41;70.12
64652;HTU21D;51062;45.120;37.660;2023-04-24T04:18:34;15.74;69.66
64652;HTU21D;51062;45.120;37.660;2023-04-24T04:21:01;16.00;69.26
64652;HTU21D;51062;45.120;37.660;2023-04-24T04:23:28;16.19;69.00
64652;HTU21D;51062;45.120;37.660;2023-04-24T04:26:09;16.41;69.43
64652;HTU21D;51062;45.120;37.660;2023-04-24T04:28:56;16.82;69.52
64652;HTU21D;51062;45.120;37.660;2023-04-24T04:31:22;17.19;69.42
64652;HTU21D;51062;45.120;37.660;2023-04-24T04:33:49;17.56;69.14
64652;HTU21D;51062;45.120;37.660;2023-04-24T04:36:16;17.92;68.66
64652;HTU21D;51062;45.120;37.660;2023-04-24T04:38:49;18.18;68.10
64652;HTU21D;51062;45.120;37.660;2023-04-24T04:41:44;18.32;67.66
64652;HTU21D;51062;45.120;37.660;2023-04-24T04:44:16;18.33;67.30
64652;HTU21D;51062;45.120;37.660;2023-04-24T04:46:42;18.32;66.99
64652;HTU21D;51062;45.120;37.660;2023-04-24T04:49:28;18.21;66.97
64652;HTU21D;51062;45.120;37.660;2023-04-24T04:51:55;18.11;67.17
64652;HTU21D;51062;45.120;37.660;2023-04-24T04:54:24;18.08;67.36
64652;HTU21D;51062;45.120;37.660;2023-04-24T04:56:50;18.06;67.64
64652;HTU21D;51062;45.120;37.660;2023-04-24T04:59:17;18.17;67.69
64652;HTU21D;51062;45.120;37.660;2023-04-24T05:01:44;18.32;67.51
64652;HTU21D;51062;45.120;37.660;2023-04-24T05:04:12;18.30;67.52
64652;HTU21D;51062;45.120;37.660;2023-04-24T05:06:39;18.18;67.59
64652;HTU21D;51062;45.120;37.660;2023-04-24T05:09:05;18.10;67.39
64652;HTU21D;51062;45.120;37.660;2023-04-24T05:11:43;17.94;67.42
64652;HTU21D;51062;45.120;37.660;2023-04-24T05:14:10;17.81;67.44
64652;HTU21D;51062;45.120;37.660;2023-04-24T05:16:39;17.67;67.62
64652;HTU21D;51062;45.120;37.660;2023-04-24T05:19:08;17.56;67.58
64652;HTU21D;51062;45.120;37.660;2023-04-24T05:21:38;17.47;67.33
64652;HTU21D;51062;45.120;37.660;2023-04-24T05:24:05;17.37;67.22
64652;HTU21D;51062;45.120;37.660;2023-04-24T05:26:52;17.29;67.04
64652;HTU21D;51062;45.120;37.660;2023-04-24T05:29:23;17.20;66.90
64652;HTU21D;51062;45.120;37.660;2023-04-24T05:31:49;17.16;66.75
64652;HTU21D;51062;45.120;37.660;2023-04-24T05:34:16;17.16;66.72
64652;HTU21D;51062;45.120;37.660;2023-04-24T05:36:44;17.13;66.64
64652;HTU21D;51062;45.120;37.660;2023-04-24T05:39:10;17.01;66.69
64652;HTU21D;51062;45.120;37.660;2023-04-24T05:41:37;16.79;66.87
64652;HTU21D;51062;45.120;37.660;2023-04-24T05:44:03;16.60;67.04
64652;HTU21D;51062;45.120;37.660;2023-04-24T05:46:29;16.37;67.15
64652;HTU21D;51062;45.120;37.660;2023-04-24T05:48:56;16.21;67.18
64652;HTU21D;51062;45.120;37.660;2023-04-24T05:51:24;15.98;67.23
64652;HTU21D;51062;45.120;37.660;2023-04-24T05:53:51;15.75;67.37
64652;HTU21D;51062;45.120;37.660;2023-04-24T05:56:18;15.56;67.43
64652;HTU21D;51062;45.120;37.660;2023-04-24T05:58:45;15.39;67.49
64652;HTU21D;51062;45.120;37.660;2023-04-24T06:01:13;15.23;67.59
64652;HTU21D;51062;45.120;37.660;2023-04-24T06:03:41;15.09;67.72
64652;HTU21D;51062;45.120;37.660;2023-04-24T06:06:08;14.98;67.85
64652;HTU21D;51062;45.120;37.660;2023-04-24T06:08:35;14.92;67.94
64652;HTU21D;51062;45.120;37.660;2023-04-24T06:11:02;14.87;67.91
64652;HTU21D;51062;45.120;37.660;2023-04-24T06:13:28;14.83;67.90
64652;HTU21D;51062;45.120;37.660;2023-04-24T06:16:16;14.79;67.95
64652;HTU21D;51062;45.120;37.660;2023-04-24T06:18:48;14.78;67.94
64652;HTU21D;51062;45.120;37.660;2023-04-24T06:21:16;14.77;67.94
64652;HTU21D;51062;45.120;37.660;2023-04-24T06:23:43;14.77;67.95
64652;HTU21D;51062;45.120;37.660;2023-04-24T06:26:12;14.81;67.96
64652;HTU21D;51062;45.120;37.660;2023-04-24T06:28:38;14.85;67.88
64652;HTU21D;51062;45.120;37.660;2023-04-24T06:31:04;14.91;67.79
64652;HTU21D;51062;45.120;37.660;2023-04-24T06:33:30;14.92;67.80
64652;HTU21D;51062;45.120;37.660;2023-04-24T06:35:57;14.94;67.81
64652;HTU21D;51062;45.120;37.660;2023-04-24T06:38:24;14.92;67.86
64652;HTU21D;51062;45.120;37.660;2023-04-24T06:40:50;14.96;67.89
64652;HTU21D;51062;45.120;37.660;2023-04-24T06:43:16;15.01;67.81
64652;HTU21D;51062;45.120;37.660;2023-04-24T06:45:43;15.06;67.76
64652;HTU21D;51062;45.120;37.660;2023-04-24T06:48:10;15.07;67.82
64652;HTU21D;51062;45.120;37.660;2023-04-24T06:50:36;15.11;67.88
64652;HTU21D;51062;45.120;37.660;2023-04-24T06:53:02;15.18;67.88
64652;HTU21D;51062;45.120;37.660;2023-04-24T06:55:28;15.28;67.89
64652;HTU21D;51062;45.120;37.660;2023-04-24T06:57:54;15.34;67.97
64652;HTU21D;51062;45.120;37.660;2023-04-24T07:00:20;15.41;68.02
64652;HTU21D;51062;45.120;37.660;2023-04-24T07:02:46;15.48;67.93
64652;HTU21D;51062;45.120;37.660;2023-04-24T07:05:13;15.53;67.94
64652;HTU21D;51062;45.120;37.660;2023-04-24T07:07:41;15.54;67.98
64652;HTU21D;51062;45.120;37.660;2023-04-24T07:10:08;15.47;68.03
64652;HTU21D;51062;45.120;37.660;2023-04-24T07:12:34;15.42;68.16
64652;HTU21D;51062;45.120;37.660;2023-04-24T07:15:01;15.39;68.28
64652;HTU21D;51062;45.120;37.660;2023-04-24T07:17:27;15.44;68.29
64652;HTU21D;51062;45.120;37.660;2023-04-24T07:19:53;15.47;68.27
64652;HTU21D;51062;45.120;37.660;2023-04-24T07:22:19;15.43;68.23
64652;HTU21D;51062;45.120;37.660;2023-04-24T07:24:45;15.41;68.33
64652;HTU21D;51062;45.120;37.660;2023-04-24T07:27:12;15.36;68.34
64652;HTU21D;51062;45.120;37.660;2023-04-24T07:29:38;15.30;68.40
64652;HTU21D;51062;45.120;37.660;2023-04-24T07:32:05;15.29;68.43
64652;HTU21D;51062;45.120;37.660;2023-04-24T07:34:31;15.24;68.37
64652;HTU21D;51062;45.120;37.660;2023-04-24T07:36:57;15.19;68.42
64652;HTU21D;51062;45.120;37.660;2023-04-24T07:39:24;15.15;68.48
64652;HTU21D;51062;45.120;37.660;2023-04-24T07:41:50;15.10;68.54
64652;HTU21D;51062;45.120;37.660;2023-04-24T07:44:16;15.04;68.59
64652;HTU21D;51062;45.120;37.660;2023-04-24T07:46:42;15.02;68.65
64652;HTU21D;51062;45.120;37.660;2023-04-24T07:49:08;14.99;68.66
64652;HTU21D;51062;45.120;37.660;2023-04-24T07:51:34;14.99;68.72
64652;HTU21D;51062;45.120;37.660;2023-04-24T07:54:04;14.98;68.74
64652;HTU21D;51062;45.120;37.660;2023-04-24T07:56:33;15.00;68.75
64652;HTU21D;51062;45.120;37.660;2023-04-24T07:58:59;15.01;68.75
64652;HTU21D;51062;45.120;37.660;2023-04-24T08:01:27;15.02;68.74
64652;HTU21D;51062;45.120;37.660;2023-04-24T08:03:53;15.06;68.71
64652;HTU21D;51062;45.120;37.660;2023-04-24T08:06:19;15.12;68.70
64652;HTU21D;51062;45.120;37.660;2023-04-24T08:08:45;15.19;68.59
64652;HTU21D;51062;45.120;37.660;2023-04-24T08:11:11;15.27;68.49
64652;HTU21D;51062;45.120;37.660;2023-04-24T08:13:37;15.25;68.42
64652;HTU21D;51062;45.120;37.660;2023-04-24T08:16:03;15.26;68.48
64652;HTU21D;51062;45.120;37.660;2023-04-24T08:18:29;15.30;68.45
64652;HTU21D;51062;45.120;37.660;2023-04-24T08:20:55;15.30;68.47
64652;HTU21D;51062;45.120;37.660;2023-04-24T08:23:27;15.34;68.49
64652;HTU21D;51062;45.120;37.660;2023-04-24T08:25:54;15.38;68.52
64652;HTU21D;51062;45.120;37.660;2023-04-24T08:28:20;15.40;68.50
64652;HTU21D;51062;45.120;37.660;2023-04-24T08:30:46;15.39;68.49
64652;HTU21D;51062;45.120;37.660;2023-04-24T08:33:14;15.37;68.52
64652;HTU21D;51062;45.120;37.660;2023-04-24T08:35:40;15.36;68.51
64652;HTU21D;51062;45.120;37.660;2023-04-24T08:38:06;15.37;68.47
64652;HTU21D;51062;45.120;37.660;2023-04-24T08:40:34;15.38;68.48
64652;HTU21D;51062;45.120;37.660;2023-04-24T08:43:00;15.41;68.51
64652;HTU21D;51062;45.120;37.660;2023-04-24T08:45:27;15.46;68.51
64652;HTU21D;51062;45.120;37.660;2023-04-24T08:47:53;15.49;68.44
64652;HTU21D;51062;45.120;37.660;2023-04-24T08:50:22;15.45;68.46
64652;HTU21D;51062;45.120;37.660;2023-04-24T08:52:52;15.40;68.51
64652;HTU21D;51062;45.120;37.660;2023-04-24T08:55:23;15.39;68.55
64652;HTU21D;51062;45.120;37.660;2023-04-24T08:57:52;15.37;68.52
64652;HTU21D;51062;45.120;37.660;2023-04-24T09:00:22;15.32;68.49
64652;HTU21D;51062;45.120;37.660;2023-04-24T09:02:49;15.26;68.55
64652;HTU21D;51062;45.120;37.660;2023-04-24T09:05:21;15.19;68.57
64652;HTU21D;51062;45.120;37.660;2023-04-24T09:07:54;15.12;68.65
64652;HTU21D;51062;45.120;37.660;2023-04-24T09:10:25;15.07;68.71
64652;HTU21D;51062;45.120;37.660;2023-04-24T09:12:52;15.03;68.75
64652;HTU21D;51062;45.120;37.660;2023-04-24T09:15:19;14.94;68.79
64652;HTU21D;51062;45.120;37.660;2023-04-24T09:17:46;14.83;68.91
64652;HTU21D;51062;45.120;37.660;2023-04-24T09:20:12;14.71;68.99
64652;HTU21D;51062;45.120;37.660;2023-04-24T09:22:39;14.58;69.10
64652;HTU21D;51062;45.120;37.660;2023-04-24T09:25:07;14.45;69.26
64652;HTU21D;51062;45.120;37.660;2023-04-24T09:27:54;14.35;69.42
64652;HTU21D;51062;45.120;37.660;2023-04-24T09:30:21;14.27;69.54
64652;HTU21D;51062;45.120;37.660;2023-04-24T09:32:48;14.23;69.64
64652;HTU21D;51062;45.120;37.660;2023-04-24T09:35:15;14.20;69.68
64652;HTU21D;51062;45.120;37.660;2023-04-24T09:37:46;14.19;69.71
64652;HTU21D;51062;45.120;37.660;2023-04-24T09:42:52;14.21;69.69
64652;HTU21D;51062;45.120;37.660;2023-04-24T09:45:18;14.21;69.74
64652;HTU21D;51062;45.120;37.660;2023-04-24T09:47:44;14.23;69.76
64652;HTU21D;51062;45.120;37.660;2023-04-24T09:50:13;14.24;69.71
64652;HTU21D;51062;45.120;37.660;2023-04-24T09:52:43;14.24;69.74
64652;HTU21D;51062;45.120;37.660;2023-04-24T09:55:18;14.26;69.78
64652;HTU21D;51062;45.120;37.660;2023-04-24T10:00:28;14.29;69.87
64652;HTU21D;51062;45.120;37.660;2023-04-24T10:03:01;14.33;69.90
64652;HTU21D;51062;45.120;37.660;2023-04-24T10:05:29;14.37;69.88
64652;HTU21D;51062;45.120;37.660;2023-04-24T10:08:00;14.40;69.86
64652;HTU21D;51062;45.120;37.660;2023-04-24T10:10:26;14.45;69.87
64652;HTU21D;51062;45.120;37.660;2023-04-24T10:12:54;14.51;69.87
64652;HTU21D;51062;45.120;37.660;2023-04-24T10:15:21;14.56;69.84
64652;HTU21D;51062;45.120;37.660;2023-04-24T10:17:48;14.62;69.77
64652;HTU21D;51062;45.120;37.660;2023-04-24T10:20:28;14.63;69.76
64652;HTU21D;51062;45.120;37.660;2023-04-24T10:22:59;14.63;69.78
64652;HTU21D;51062;45.120;37.660;2023-04-24T10:25:30;14.62;69.84
64652;HTU21D;51062;45.120;37.660;2023-04-24T10:27:58;14.65;69.92
64652;HTU21D;51062;45.120;37.660;2023-04-24T10:30:30;14.70;69.93
64652;HTU21D;51062;45.120;37.660;2023-04-24T10:33:04;14.74;69.89
64652;HTU21D;51062;45.120;37.660;2023-04-24T10:35:32;14.79;69.91
64652;HTU21D;51062;45.120;37.660;2023-04-24T10:38:06;14.83;69.93
64652;HTU21D;51062;45.120;37.660;2023-04-24T10:40:35;14.89;69.92
64652;HTU21D;51062;45.120;37.660;2023-04-24T10:43:06;14.97;69.89
64652;HTU21D;51062;45.120;37.660;2023-04-24T10:45:34;15.03;69.91
64652;HTU21D;51062;45.120;37.660;2023-04-24T10:48:05;15.13;69.87
64652;HTU21D;51062;45.120;37.660;2023-04-24T10:50:43;15.24;69.78
64652;HTU21D;51062;45.120;37.660;2023-04-24T10:53:29;15.34;69.73
64652;HTU21D;51062;45.120;37.660;2023-04-24T10:58:42;15.56;69.67
64652;HTU21D;51062;45.120;37.660;2023-04-24T11:01:30;15.71;69.72
64652;HTU21D;51062;45.120;37.660;2023-04-24T11:03:59;15.85;69.64
64652;HTU21D;51062;45.120;37.660;2023-04-24T11:06:30;15.95;69.62
64652;HTU21D;51062;45.120;37.660;2023-04-24T11:09:09;16.00;69.62
64652;HTU21D;51062;45.120;37.660;2023-04-24T11:11:37;16.05;69.61
64652;HTU21D;51062;45.120;37.660;2023-04-24T11:14:07;16.10;69.57
64652;HTU21D;51062;45.120;37.660;2023-04-24T11:16:43;16.10;69.64
64652;HTU21D;51062;45.120;37.660;2023-04-24T11:19:18;16.08;69.68
64652;HTU21D;51062;45.120;37.660;2023-04-24T11:21:58;16.06;69.69
64652;HTU21D;51062;45.120;37.660;2023-04-24T11:32:38;16.02;69.77
64652;HTU21D;51062;45.120;37.660;2023-04-24T11:35:18;16.00;69.77
64652;HTU21D;51062;45.120;37.660;2023-04-24T11:37:49;15.97;69.74
64652;HTU21D;51062;45.120;37.660;2023-04-24T11:40:18;15.93;69.75
64652;HTU21D;51062;45.120;37.660;2023-04-24T11:42:54;15.93;69.74
64652;HTU21D;51062;45.120;37.660;2023-04-24T11:45:29;15.89;69.73
64652;HTU21D;51062;45.120;37.660;2023-04-24T11:47:56;15.84;69.74
64652;HTU21D;51062;45.120;37.660;2023-04-24T11:50:25;15.77;69.81
64652;HTU21D;51062;45.120;37.660;2023-04-24T11:52:51;15.70;69.87
64652;HTU21D;51062;45.120;37.660;2023-04-24T11:57:52;15.60;69.98
64652;HTU21D;51062;45.120;37.660;2023-04-24T12:00:21;15.59;69.99
64652;HTU21D;51062;45.120;37.660;2023-04-24T12:02:47;15.57;69.95
64652;HTU21D;51062;45.120;37.660;2023-04-24T12:05:23;15.54;69.96
64652;HTU21D;51062;45.120;37.660;2023-04-24T12:07:50;15.53;69.94
64652;HTU21D;51062;45.120;37.660;2023-04-24T12:10:24;15.52;69.93
64652;HTU21D;51062;45.120;37.660;2023-04-24T12:12:51;15.49;69.97
64652;HTU21D;51062;45.120;37.660;2023-04-24T12:15:18;15.49;70.00
64652;HTU21D;51062;45.120;37.660;2023-04-24T12:17:45;15.51;69.99
64652;HTU21D;51062;45.120;37.660;2023-04-24T12:20:12;15.53;70.00
64652;HTU21D;51062;45.120;37.660;2023-04-24T12:22:55;15.52;69.99
64652;HTU21D;51062;45.120;37.660;2023-04-24T12:25:24;15.51;70.01
64652;HTU21D;51062;45.120;37.660;2023-04-24T12:28:11;15.49;70.05
64652;HTU21D;51062;45.120;37.660;2023-04-24T12:33:10;15.45;70.05
64652;HTU21D;51062;45.120;37.660;2023-04-24T12:35:36;15.41;70.05
64652;HTU21D;51062;45.120;37.660;2023-04-24T12:38:10;15.36;70.13
64652;HTU21D;51062;45.120;37.660;2023-04-24T12:40:38;15.31;70.16
64652;HTU21D;51062;45.120;37.660;2023-04-24T12:43:20;15.25;70.20
64652;HTU21D;51062;45.120;37.660;2023-04-24T12:45:49;15.15;70.19
64652;HTU21D;51062;45.120;37.660;2023-04-24T12:48:15;15.06;70.29
64652;HTU21D;51062;45.120;37.660;2023-04-24T12:50:41;14.97;70.39
64652;HTU21D;51062;45.120;37.660;2023-04-24T12:53:08;14.89;70.50
64652;HTU21D;51062;45.120;37.660;2023-04-24T12:55:35;14.84;70.55
64652;HTU21D;51062;45.120;37.660;2023-04-24T12:58:01;14.80;70.58
64652;HTU21D;51062;45.120;37.660;2023-04-24T13:00:28;14.77;70.63
64652;HTU21D;51062;45.120;37.660;2023-04-24T13:02:55;14.72;70.68
64652;HTU21D;51062;45.120;37.660;2023-04-24T13:05:21;14.69;70.71
64652;HTU21D;51062;45.120;37.660;2023-04-24T13:07:47;14.64;70.73
64652;HTU21D;51062;45.120;37.660;2023-04-24T13:10:13;14.60;70.77
64652;HTU21D;51062;45.120;37.660;2023-04-24T13:12:40;14.55;70.81
64652;HTU21D;51062;45.120;37.660;2023-04-24T13:15:06;14.53;70.84
64652;HTU21D;51062;45.120;37.660;2023-04-24T13:17:33;14.49;70.90
64652;HTU21D;51062;45.120;37.660;2023-04-24T13:19:59;14.49;70.96
64652;HTU21D;51062;45.120;37.660;2023-04-24T13:22:25;14.48;71.00
64652;HTU21D;51062;45.120;37.660;2023-04-24T13:24:51;14.51;71.00
64652;HTU21D;51062;45.120;37.660;2023-04-24T13:27:18;14.54;70.98
64652;HTU21D;51062;45.120;37.660;2023-04-24T13:29:44;14.56;70.94
64652;HTU21D;51062;45.120;37.660;2023-04-24T13:32:10;14.56;70.96
64652;HTU21D;51062;45.120;37.660;2023-04-24T13:34:36;14.55;70.96
64652;HTU21D;51062;45.120;37.660;2023-04-24T13:37:03;14.51;70.98
64652;HTU21D;51062;45.120;37.660;2023-04-24T13:39:29;14.49;71.09
64652;HTU21D;51062;45.120;37.660;2023-04-24T13:41:56;14.49;71.13
64652;HTU21D;51062;45.120;37.660;2023-04-24T13:44:22;14.49;71.16
64652;HTU21D;51062;45.120;37.660;2023-04-24T13:46:51;14.52;71.16
64652;HTU21D;51062;45.120;37.660;2023-04-24T13:49:20;14.52;71.13
64652;HTU21D;51062;45.120;37.660;2023-04-24T13:51:46;14.54;71.10
64652;HTU21D;51062;45.120;37.660;2023-04-24T13:54:13;14.54;71.10
64652;HTU21D;51062;45.120;37.660;2023-04-24T13:56:40;14.55;71.08
64652;HTU21D;51062;45.120;37.660;2023-04-24T13:59:06;14.54;71.10
64652;HTU21D;51062;45.120;37.660;2023-04-24T14:01:32;14.53;71.12
64652;HTU21D;51062;45.120;37.660;2023-04-24T14:03:58;14.49;71.13
64652;HTU21D;51062;45.120;37.660;2023-04-24T14:06:25;14.48;71.15
64652;HTU21D;51062;45.120;37.660;2023-04-24T14:08:52;14.45;71.16
64652;HTU21D;51062;45.120;37.660;2023-04-24T14:11:19;14.41;71.22
64652;HTU21D;51062;45.120;37.660;2023-04-24T14:13:45;14.38;71.25
64652;HTU21D;51062;45.120;37.660;2023-04-24T14:16:12;14.36;71.26
64652;HTU21D;51062;45.120;37.660;2023-04-24T14:18:39;14.34;71.30
64652;HTU21D;51062;45.120;37.660;2023-04-24T14:21:06;14.32;71.30
64652;HTU21D;51062;45.120;37.660;2023-04-24T14:23:32;14.30;71.32
64652;HTU21D;51062;45.120;37.660;2023-04-24T14:25:58;14.28;71.34
64652;HTU21D;51062;45.120;37.660;2023-04-24T14:28:25;14.27;71.35
64652;HTU21D;51062;45.120;37.660;2023-04-24T14:30:52;14.24;71.38
64652;HTU21D;51062;45.120;37.660;2023-04-24T14:33:19;14.21;71.42
64652;HTU21D;51062;45.120;37.660;2023-04-24T14:35:45;14.19;71.45
64652;HTU21D;51062;45.120;37.660;2023-04-24T14:38:11;14.17;71.50
64652;HTU21D;51062;45.120;37.660;2023-04-24T14:40:38;14.11;71.55
64652;HTU21D;51062;45.120;37.660;2023-04-24T14:43:05;14.10;71.58
64652;HTU21D;51062;45.120;37.660;2023-04-24T14:45:32;14.09;71.61
64652;HTU21D;51062;45.120;37.660;2023-04-24T14:47:58;14.06;71.62
64652;HTU21D;51062;45.120;37.660;2023-04-24T14:50:25;14.05;71.66
64652;HTU21D;51062;45.120;37.660;2023-04-24T14:52:55;14.04;71.68
64652;HTU21D;51062;45.120;37.660;2023-04-24T14:55:25;14.04;71.70
64652;HTU21D;51062;45.120;37.660;2023-04-24T14:57:52;14.04;71.69
64652;HTU21D;51062;45.120;37.660;2023-04-24T15:00:19;14.03;71.68
64652;HTU21D;51062;45.120;37.660;2023-04-24T15:02:46;14.01;71.71
64652;HTU21D;51062;45.120;37.660;2023-04-24T15:05:12;14.00;71.75
64652;HTU21D;51062;45.120;37.660;2023-04-24T15:07:38;13.99;71.80
64652;HTU21D;51062;45.120;37.660;2023-04-24T15:10:05;13.97;71.85
64652;HTU21D;51062;45.120;37.660;2023-04-24T15:12:31;13.97;71.89
64652;HTU21D;51062;45.120;37.660;2023-04-24T15:14:58;13.97;71.89
64652;HTU21D;51062;45.120;37.660;2023-04-24T15:17:26;13.96;71.88
64652;HTU21D;51062;45.120;37.660;2023-04-24T15:19:52;13.98;71.87
64652;HTU21D;51062;45.120;37.660;2023-04-24T15:22:18;13.97;71.88
64652;HTU21D;51062;45.120;37.660;2023-04-24T15:24:44;13.97;71.90
64652;HTU21D;51062;45.120;37.660;2023-04-24T15:27:10;13.95;71.92
64652;HTU21D;51062;45.120;37.660;2023-04-24T15:29:37;13.94;71.93
64652;HTU21D;51062;45.120;37.660;2023-04-24T15:32:03;13.94;71.93